sensor_id;sensor_type;location;lat;lon;timestamp;pressure;altitude;pressure_sealevel;temperature;humidity
1207;BME280;593;53.184;8.216;2023-03-01T00:01:24;102836.59;;;3.21;92.27
1207;BME280;593;53.184;8.216;2023-03-01T00:03:51;102835.94;;;3.19;91.79
1207;BME280;593;53.184;8.216;2023-03-01T00:06:17;102836.28;;;3.16;92.14
1207;BME280;593;53.184;8.216;2023-03-01T00:08:42;102829.63;;;3.12;92.00
1207;BME280;593;53.184;8.216;2023-03-01T00:11:17;102839.38;;;3.13;91.83
1207;BME280;593;53.184;8.216;2023-03-01T00:13:44;102833.31;;;3.11;92.55
1207;BME280;593;53.184;8.216;2023-03-01T00:16:13;102831.00;;;3.08;92.37
1207;BME280;593;53.184;8.216;2023-03-01T00:18:39;102824.50;;;3.02;92.65
1207;BME280;593;53.184;8.216;2023-03-01T00:21:05;102816.44;;;3.02;92.54
1207;BME280;593;53.184;8.216;2023-03-01T00:23:31;102805.38;;;2.97;92.89
1207;BME280;593;53.184;8.216;2023-03-01T00:25:56;102800.34;;;2.94;92.78
1207;BME280;593;53.184;8.216;2023-03-01T00:28:22;102804.72;;;2.95;92.62
1207;BME280;593;53.184;8.216;2023-03-01T00:30:48;102809.06;;;2.96;92.89
1207;BME280;593;53.184;8.216;2023-03-01T00:33:13;102811.09;;;2.94;92.95
1207;BME280;593;53.184;8.216;2023-03-01T00:35:39;102811.94;;;2.95;93.57
1207;BME280;593;53.184;8.216;2023-03-01T00:38:04;102803.59;;;2.90;93.17
1207;BME280;593;53.184;8.216;2023-03-01T00:40:32;102799.22;;;2.89;93.81
1207;BME280;593;53.184;8.216;2023-03-01T00:42:58;102807.94;;;2.91;93.98
1207;BME280;593;53.184;8.216;2023-03-01T00:45:24;102810.63;;;2.91;93.44
1207;BME280;593;53.184;8.216;2023-03-01T00:47:51;102802.75;;;2.89;93.35
1207;BME280;593;53.184;8.216;2023-03-01T00:50:17;102808.97;;;2.90;93.62
1207;BME280;593;53.184;8.216;2023-03-01T00:52:43;102808.31;;;2.88;93.16
1207;BME280;593;53.184;8.216;2023-03-01T00:55:08;102805.78;;;2.86;92.73
1207;BME280;593;53.184;8.216;2023-03-01T00:57:34;102810.69;;;2.83;92.63
1207;BME280;593;53.184;8.216;2023-03-01T00:59:59;102810.00;;;2.81;92.23
1207;BME280;593;53.184;8.216;2023-03-01T01:02:25;102803.16;;;2.78;92.43
1207;BME280;593;53.184;8.216;2023-03-01T01:04:50;102797.47;;;2.73;92.32
1207;BME280;593;53.184;8.216;2023-03-01T01:07:16;102796.81;;;2.71;91.80
1207;BME280;593;53.184;8.216;2023-03-01T01:09:42;102806.06;;;2.69;92.33
1207;BME280;593;53.184;8.216;2023-03-01T01:12:07;102796.06;;;2.63;92.59
1207;BME280;593;53.184;8.216;2023-03-01T01:14:33;102800.38;;;2.64;92.66
1207;BME280;593;53.184;8.216;2023-03-01T01:16:58;102795.03;;;2.64;93.11
1207;BME280;593;53.184;8.216;2023-03-01T01:19:24;102785.00;;;2.57;92.85
1207;BME280;593;53.184;8.216;2023-03-01T01:21:50;102788.34;;;2.59;92.42
1207;BME280;593;53.184;8.216;2023-03-01T01:24:16;102789.03;;;2.53;92.33
1207;BME280;593;53.184;8.216;2023-03-01T01:26:42;102789.03;;;2.53;92.50
1207;BME280;593;53.184;8.216;2023-03-01T01:29:08;102785.69;;;2.51;92.15
1207;BME280;593;53.184;8.216;2023-03-01T01:31:34;102781.38;;;2.50;92.32
1207;BME280;593;53.184;8.216;2023-03-01T01:34:01;102778.38;;;2.45;92.73
1207;BME280;593;53.184;8.216;2023-03-01T01:36:27;102784.19;;;2.49;92.59
1207;BME280;593;53.184;8.216;2023-03-01T01:38:52;102779.03;;;2.47;92.97
1207;BME280;593;53.184;8.216;2023-03-01T01:41:19;102770.13;;;2.47;92.48
1207;BME280;593;53.184;8.216;2023-03-01T01:43:48;102760.28;;;2.39;92.58
1207;BME280;593;53.184;8.216;2023-03-01T01:46:32;102767.78;;;2.44;92.18
1207;BME280;593;53.184;8.216;2023-03-01T01:49:01;102759.44;;;2.39;92.52
1207;BME280;593;53.184;8.216;2023-03-01T01:51:30;102762.09;;;2.39;92.32
1207;BME280;593;53.184;8.216;2023-03-01T01:54:07;102760.63;;;2.36;92.16
1207;BME280;593;53.184;8.216;2023-03-01T01:56:33;102746.41;;;2.28;92.23
1207;BME280;593;53.184;8.216;2023-03-01T01:59:00;102750.75;;;2.29;92.20
1207;BME280;593;53.184;8.216;2023-03-01T02:01:26;102741.75;;;2.22;92.26
1207;BME280;593;53.184;8.216;2023-03-01T02:03:52;102738.53;;;2.26;92.88
1207;BME280;593;53.184;8.216;2023-03-01T02:06:33;102739.56;;;2.25;92.70
1207;BME280;593;53.184;8.216;2023-03-01T02:09:06;102739.91;;;2.22;92.45
1207;BME280;593;53.184;8.216;2023-03-01T02:11:33;102720.97;;;2.16;92.37
1207;BME280;593;53.184;8.216;2023-03-01T02:13:58;102724.03;;;2.13;92.93
1207;BME280;593;53.184;8.216;2023-03-01T02:16:25;102725.53;;;2.15;93.00
1207;BME280;593;53.184;8.216;2023-03-01T02:18:51;102720.31;;;2.14;92.89
1207;BME280;593;53.184;8.216;2023-03-01T02:24:13;102722.69;;;2.09;93.11
1207;BME280;593;53.184;8.216;2023-03-01T02:26:46;102725.22;;;2.10;93.51
1207;BME280;593;53.184;8.216;2023-03-01T02:29:13;102717.84;;;2.04;93.46
1207;BME280;593;53.184;8.216;2023-03-01T02:31:39;102717.84;;;2.04;93.52
1207;BME280;593;53.184;8.216;2023-03-01T02:34:13;102730.94;;;2.07;92.92
1207;BME280;593;53.184;8.216;2023-03-01T02:39:13;102728.78;;;2.03;93.54
1207;BME280;593;53.184;8.216;2023-03-01T02:41:44;102729.13;;;2.00;93.46
1207;BME280;593;53.184;8.216;2023-03-01T02:44:11;102729.81;;;1.93;93.99
1207;BME280;593;53.184;8.216;2023-03-01T02:46:42;102736.66;;;1.96;93.64
1207;BME280;593;53.184;8.216;2023-03-01T02:49:26;102726.81;;;1.88;93.79
1207;BME280;593;53.184;8.216;2023-03-01T02:54:31;102735.50;;;1.90;94.57
1207;BME280;593;53.184;8.216;2023-03-01T02:56:59;102732.84;;;1.90;94.92
1207;BME280;593;53.184;8.216;2023-03-01T02:59:29;102731.19;;;1.89;95.08
1207;BME280;593;53.184;8.216;2023-03-01T03:01:56;102721.63;;;1.87;94.96
1207;BME280;593;53.184;8.216;2023-03-01T03:04:21;102725.31;;;1.86;95.33
1207;BME280;593;53.184;8.216;2023-03-01T03:06:49;102729.50;;;1.88;95.43
1207;BME280;593;53.184;8.216;2023-03-01T03:09:16;102727.84;;;1.87;94.97
1207;BME280;593;53.184;8.216;2023-03-01T03:11:41;102725.31;;;1.86;95.13
1207;BME280;593;53.184;8.216;2023-03-01T03:14:12;102726.16;;;1.86;94.69
1207;BME280;593;53.184;8.216;2023-03-01T03:16:46;102724.66;;;1.84;94.53
1207;BME280;593;53.184;8.216;2023-03-01T03:19:12;102722.16;;;1.82;94.15
1207;BME280;593;53.184;8.216;2023-03-01T03:21:37;102707.63;;;1.69;93.97
1207;BME280;593;53.184;8.216;2023-03-01T03:24:03;102711.63;;;1.73;93.75
1207;BME280;593;53.184;8.216;2023-03-01T03:26:29;102712.28;;;1.75;93.59
1207;BME280;593;53.184;8.216;2023-03-01T03:28:55;102695.38;;;1.66;93.35
1207;BME280;593;53.184;8.216;2023-03-01T03:31:20;102709.31;;;1.70;93.02
1207;BME280;593;53.184;8.216;2023-03-01T03:33:45;102691.56;;;1.61;92.98
1207;BME280;593;53.184;8.216;2023-03-01T03:36:18;102696.91;;;1.61;93.10
1207;BME280;593;53.184;8.216;2023-03-01T03:38:44;102697.91;;;1.68;92.03
1207;BME280;593;53.184;8.216;2023-03-01T03:41:11;102691.41;;;1.62;92.49
1207;BME280;593;53.184;8.216;2023-03-01T03:43:38;102696.41;;;1.65;92.04
1207;BME280;593;53.184;8.216;2023-03-01T03:46:04;102671.50;;;1.49;92.54
1207;BME280;593;53.184;8.216;2023-03-01T03:48:34;102689.56;;;1.63;92.05
1207;BME280;593;53.184;8.216;2023-03-01T03:51:00;102688.22;;;1.59;91.48
1207;BME280;593;53.184;8.216;2023-03-01T03:53:26;102684.03;;;1.56;92.32
1207;BME280;593;53.184;8.216;2023-03-01T03:55:53;102679.53;;;1.49;92.62
1207;BME280;593;53.184;8.216;2023-03-01T03:58:21;102687.09;;;1.45;92.68
1207;BME280;593;53.184;8.216;2023-03-01T04:00:50;102677.72;;;1.41;92.72
1207;BME280;593;53.184;8.216;2023-03-01T04:03:17;102682.25;;;1.41;93.61
1207;BME280;593;53.184;8.216;2023-03-01T04:05:44;102689.47;;;1.40;93.43
1207;BME280;593;53.184;8.216;2023-03-01T04:08:10;102684.25;;;1.39;92.96
1207;BME280;593;53.184;8.216;2023-03-01T04:10:45;102680.94;;;1.37;92.83
1207;BME280;593;53.184;8.216;2023-03-01T04:13:12;102679.25;;;1.36;93.04
1207;BME280;593;53.184;8.216;2023-03-01T04:15:38;102679.25;;;1.36;93.11
1207;BME280;593;53.184;8.216;2023-03-01T04:18:04;102681.91;;;1.36;93.64
1207;BME280;593;53.184;8.216;2023-03-01T04:20:33;102673.41;;;1.32;93.48
1207;BME280;593;53.184;8.216;2023-03-01T04:23:12;102684.59;;;1.36;93.89
1207;BME280;593;53.184;8.216;2023-03-01T04:25:42;102689.16;;;1.35;94.10
1207;BME280;593;53.184;8.216;2023-03-01T04:28:10;102681.25;;;1.34;94.37
1207;BME280;593;53.184;8.216;2023-03-01T04:30:36;102678.44;;;1.35;95.11
1207;BME280;593;53.184;8.216;2023-03-01T04:33:06;102672.88;;;1.37;95.35
1207;BME280;593;53.184;8.216;2023-03-01T04:35:32;102666.88;;;1.35;95.92
1207;BME280;593;53.184;8.216;2023-03-01T04:37:58;102657.78;;;1.36;96.35
1207;BME280;593;53.184;8.216;2023-03-01T04:40:23;102666.69;;;1.36;96.63
1207;BME280;593;53.184;8.216;2023-03-01T04:42:49;102654.13;;;1.28;97.10
1207;BME280;593;53.184;8.216;2023-03-01T04:45:14;102663.00;;;1.37;97.02
1207;BME280;593;53.184;8.216;2023-03-01T04:47:41;102670.19;;;1.37;97.09
1207;BME280;593;53.184;8.216;2023-03-01T04:50:08;102660.66;;;1.34;96.62
1207;BME280;593;53.184;8.216;2023-03-01T04:52:34;102666.88;;;1.35;96.82
1207;BME280;593;53.184;8.216;2023-03-01T04:54:59;102668.88;;;1.33;96.33
1207;BME280;593;53.184;8.216;2023-03-01T04:57:25;102661.19;;;1.29;96.37
1207;BME280;593;53.184;8.216;2023-03-01T04:59:50;102633.44;;;1.14;95.68
1207;BME280;593;53.184;8.216;2023-03-01T05:02:15;102660.69;;;1.26;94.55
1207;BME280;593;53.184;8.216;2023-03-01T05:04:41;102658.00;;;1.26;94.47
1207;BME280;593;53.184;8.216;2023-03-01T05:07:06;102659.19;;;1.23;94.42
1207;BME280;593;53.184;8.216;2023-03-01T05:09:31;102651.66;;;1.19;94.53
1207;BME280;593;53.184;8.216;2023-03-01T05:11:57;102656.84;;;1.20;94.18
1207;BME280;593;53.184;8.216;2023-03-01T05:14:22;102652.66;;;1.18;93.98
1207;BME280;593;53.184;8.216;2023-03-01T05:16:47;102646.81;;;1.14;94.05
1207;BME280;593;53.184;8.216;2023-03-01T05:19:13;102639.47;;;1.08;94.20
1207;BME280;593;53.184;8.216;2023-03-01T05:21:41;102648.84;;;1.12;94.12
1207;BME280;593;53.184;8.216;2023-03-01T05:24:25;102637.81;;;1.07;93.73
1207;BME280;593;53.184;8.216;2023-03-01T05:26:52;102645.66;;;1.09;94.58
1207;BME280;593;53.184;8.216;2023-03-01T05:29:19;102636.97;;;1.07;94.75
1207;BME280;593;53.184;8.216;2023-03-01T05:31:56;102639.47;;;1.08;95.48
1207;BME280;593;53.184;8.216;2023-03-01T05:34:24;102641.47;;;1.06;95.43
1207;BME280;593;53.184;8.216;2023-03-01T05:36:51;102623.59;;;0.99;96.32
1207;BME280;593;53.184;8.216;2023-03-01T05:39:22;102637.13;;;1.05;96.52
1207;BME280;593;53.184;8.216;2023-03-01T05:41:48;102638.63;;;1.08;97.16
1207;BME280;593;53.184;8.216;2023-03-01T05:44:14;102625.94;;;1.02;97.72
1207;BME280;593;53.184;8.216;2023-03-01T05:46:39;102624.56;;;1.06;97.78
1207;BME280;593;53.184;8.216;2023-03-01T05:49:04;102588.31;;;0.87;97.81
1207;BME280;593;53.184;8.216;2023-03-01T05:51:30;102634.09;;;1.08;97.47
1207;BME280;593;53.184;8.216;2023-03-01T05:53:55;102630.59;;;1.08;97.14
1207;BME280;593;53.184;8.216;2023-03-01T05:56:21;102633.78;;;1.03;95.95
1207;BME280;593;53.184;8.216;2023-03-01T05:58:48;102638.81;;;0.98;95.81
1207;BME280;593;53.184;8.216;2023-03-01T06:01:14;102644.00;;;1.00;95.93
1207;BME280;593;53.184;8.216;2023-03-01T06:03:39;102642.53;;;0.97;95.67
1207;BME280;593;53.184;8.216;2023-03-01T06:06:05;102634.31;;;0.91;95.58
1207;BME280;593;53.184;8.216;2023-03-01T06:08:30;102649.19;;;0.93;95.80
1207;BME280;593;53.184;8.216;2023-03-01T06:10:55;102642.66;;;0.96;94.95
1207;BME280;593;53.184;8.216;2023-03-01T06:13:22;102649.19;;;0.93;94.35
1207;BME280;593;53.184;8.216;2023-03-01T06:15:48;102647.38;;;0.86;94.29
1207;BME280;593;53.184;8.216;2023-03-01T06:18:13;102652.06;;;0.84;93.93
1207;BME280;593;53.184;8.216;2023-03-01T06:20:39;102652.25;;;0.82;94.61
1207;BME280;593;53.184;8.216;2023-03-01T06:23:04;102655.44;;;0.78;94.97
1207;BME280;593;53.184;8.216;2023-03-01T06:25:29;102650.75;;;0.80;94.88
1207;BME280;593;53.184;8.216;2023-03-01T06:27:55;102655.59;;;0.76;94.53
1207;BME280;593;53.184;8.216;2023-03-01T06:30:23;102663.47;;;0.78;95.04
1207;BME280;593;53.184;8.216;2023-03-01T06:32:49;102656.75;;;0.74;95.07
1207;BME280;593;53.184;8.216;2023-03-01T06:35:16;102656.09;;;0.72;95.17
1207;BME280;593;53.184;8.216;2023-03-01T06:37:43;102661.63;;;0.70;94.93
1207;BME280;593;53.184;8.216;2023-03-01T06:40:09;102670.34;;;0.72;95.54
1207;BME280;593;53.184;8.216;2023-03-01T06:42:38;102672.00;;;0.73;96.40
1207;BME280;593;53.184;8.216;2023-03-01T06:45:04;102672.84;;;0.74;96.52
1207;BME280;593;53.184;8.216;2023-03-01T06:47:30;102674.50;;;0.75;97.48
1207;BME280;593;53.184;8.216;2023-03-01T06:49:56;102667.66;;;0.72;97.43
1207;BME280;593;53.184;8.216;2023-03-01T06:52:21;102668.50;;;0.73;98.61
1207;BME280;593;53.184;8.216;2023-03-01T06:54:46;102671.31;;;0.79;98.84
1207;BME280;593;53.184;8.216;2023-03-01T06:57:12;102665.31;;;0.77;99.38
1207;BME280;593;53.184;8.216;2023-03-01T06:59:37;102676.16;;;0.84;100.00
1207;BME280;593;53.184;8.216;2023-03-01T07:02:02;102671.66;;;0.84;100.00
1207;BME280;593;53.184;8.216;2023-03-01T07:04:28;102679.34;;;0.87;100.00
1207;BME280;593;53.184;8.216;2023-03-01T07:06:56;102676.50;;;0.89;100.00
1207;BME280;593;53.184;8.216;2023-03-01T07:09:22;102676.31;;;0.90;100.00
1207;BME280;593;53.184;8.216;2023-03-01T07:11:48;102675.97;;;0.93;100.00
1207;BME280;593;53.184;8.216;2023-03-01T07:14:14;102671.13;;;0.97;100.00
1207;BME280;593;53.184;8.216;2023-03-01T07:16:39;102675.47;;;0.98;100.00
1207;BME280;593;53.184;8.216;2023-03-01T07:19:05;102672.97;;;0.96;100.00
1207;BME280;593;53.184;8.216;2023-03-01T07:21:30;102683.69;;;1.04;100.00
1207;BME280;593;53.184;8.216;2023-03-01T07:23:56;102679.66;;;1.08;100.00
1207;BME280;593;53.184;8.216;2023-03-01T07:26:21;102678.00;;;1.07;100.00
1207;BME280;593;53.184;8.216;2023-03-01T07:28:46;102684.66;;;1.11;100.00
1207;BME280;593;53.184;8.216;2023-03-01T07:31:12;102686.34;;;1.12;100.00
1207;BME280;593;53.184;8.216;2023-03-01T07:33:37;102690.53;;;1.15;100.00
1207;BME280;593;53.184;8.216;2023-03-01T07:36:03;102680.63;;;1.15;100.00
1207;BME280;593;53.184;8.216;2023-03-01T07:38:30;102673.44;;;1.16;100.00
1207;BME280;593;53.184;8.216;2023-03-01T07:41:00;102671.72;;;1.23;100.00
1207;BME280;593;53.184;8.216;2023-03-01T07:43:27;102678.25;;;1.28;100.00
1207;BME280;593;53.184;8.216;2023-03-01T07:45:52;102659.38;;;1.22;100.00
1207;BME280;593;53.184;8.216;2023-03-01T07:48:18;102660.03;;;1.24;100.00
1207;BME280;593;53.184;8.216;2023-03-01T07:50:43;102678.75;;;1.32;100.00
1207;BME280;593;53.184;8.216;2023-03-01T07:53:09;102680.94;;;1.37;100.00
1207;BME280;593;53.184;8.216;2023-03-01T07:55:35;102677.06;;;1.39;100.00
1207;BME280;593;53.184;8.216;2023-03-01T07:58:01;102681.44;;;1.40;100.00
1207;BME280;593;53.184;8.216;2023-03-01T08:00:26;102672.53;;;1.40;100.00
1207;BME280;593;53.184;8.216;2023-03-01T08:02:51;102645.75;;;1.32;100.00
1207;BME280;593;53.184;8.216;2023-03-01T08:05:17;102669.16;;;1.46;100.00
1207;BME280;593;53.184;8.216;2023-03-01T08:07:42;102669.97;;;1.54;100.00
1207;BME280;593;53.184;8.216;2023-03-01T08:10:08;102668.59;;;1.58;100.00
1207;BME280;593;53.184;8.216;2023-03-01T08:12:33;102674.47;;;1.62;100.00
1207;BME280;593;53.184;8.216;2023-03-01T08:14:59;102675.13;;;1.64;100.00
1207;BME280;593;53.184;8.216;2023-03-01T08:17:24;102668.41;;;1.68;100.00
1207;BME280;593;53.184;8.216;2023-03-01T08:19:49;102665.38;;;1.71;100.00
1207;BME280;593;53.184;8.216;2023-03-01T08:22:15;102650.97;;;1.72;100.00
1207;BME280;593;53.184;8.216;2023-03-01T08:24:40;102657.47;;;1.77;100.00
1207;BME280;593;53.184;8.216;2023-03-01T08:27:05;102654.59;;;1.79;100.00
1207;BME280;593;53.184;8.216;2023-03-01T08:29:32;102659.75;;;1.88;100.00
1207;BME280;593;53.184;8.216;2023-03-01T08:31:57;102665.41;;;1.93;100.00
1207;BME280;593;53.184;8.216;2023-03-01T08:34:23;102636.13;;;1.84;100.00
1207;BME280;593;53.184;8.216;2023-03-01T08:36:49;102647.59;;;2.01;100.00
1207;BME280;593;53.184;8.216;2023-03-01T08:39:18;102649.78;;;2.05;100.00
1207;BME280;593;53.184;8.216;2023-03-01T08:41:44;102644.22;;;2.07;100.00
1207;BME280;593;53.184;8.216;2023-03-01T08:44:12;102646.91;;;2.07;100.00
1207;BME280;593;53.184;8.216;2023-03-01T08:46:39;102657.41;;;2.16;100.00
1207;BME280;593;53.184;8.216;2023-03-01T08:49:16;102648.34;;;2.17;100.00
1207;BME280;593;53.184;8.216;2023-03-01T08:51:43;102639.94;;;2.20;100.00
1207;BME280;593;53.184;8.216;2023-03-01T08:54:14;102628.81;;;2.23;100.00
1207;BME280;593;53.184;8.216;2023-03-01T08:56:40;102624.50;;;2.22;100.00
1207;BME280;593;53.184;8.216;2023-03-01T08:59:06;102645.81;;;2.38;100.00
1207;BME280;593;53.184;8.216;2023-03-01T09:01:31;102643.97;;;2.39;100.00
1207;BME280;593;53.184;8.216;2023-03-01T09:03:56;102634.72;;;2.41;100.00
1207;BME280;593;53.184;8.216;2023-03-01T09:06:22;102632.63;;;2.51;100.00
1207;BME280;593;53.184;8.216;2023-03-01T09:08:49;102634.22;;;2.60;100.00
1207;BME280;593;53.184;8.216;2023-03-01T09:11:17;102631.81;;;2.66;100.00
1207;BME280;593;53.184;8.216;2023-03-01T09:13:43;102626.59;;;2.72;100.00
1207;BME280;593;53.184;8.216;2023-03-01T09:16:11;102632.88;;;2.79;100.00
1207;BME280;593;53.184;8.216;2023-03-01T09:18:36;102630.69;;;2.83;100.00
1207;BME280;593;53.184;8.216;2023-03-01T09:21:10;102635.78;;;2.92;100.00
1207;BME280;593;53.184;8.216;2023-03-01T09:23:40;102629.00;;;2.96;100.00
1207;BME280;593;53.184;8.216;2023-03-01T09:26:07;102636.06;;;2.97;100.00
1207;BME280;593;53.184;8.216;2023-03-01T09:28:34;102646.56;;;3.07;100.00
1207;BME280;593;53.184;8.216;2023-03-01T09:31:01;102639.78;;;3.11;100.00
1207;BME280;593;53.184;8.216;2023-03-01T09:33:28;102650.28;;;3.20;100.00
1207;BME280;593;53.184;8.216;2023-03-01T09:36:05;102643.69;;;3.23;100.00
1207;BME280;593;53.184;8.216;2023-03-01T09:38:32;102642.50;;;3.26;100.00
1207;BME280;593;53.184;8.216;2023-03-01T09:40:59;102648.88;;;3.39;100.00
1207;BME280;593;53.184;8.216;2023-03-01T09:45:59;102643.97;;;3.43;100.00
1207;BME280;593;53.184;8.216;2023-03-01T09:48:31;102652.09;;;3.49;100.00
1207;BME280;593;53.184;8.216;2023-03-01T09:51:01;102637.66;;;3.50;100.00
1207;BME280;593;53.184;8.216;2023-03-01T09:53:33;102649.59;;;3.62;100.00
1207;BME280;593;53.184;8.216;2023-03-01T09:56:22;102644.13;;;3.70;100.00
1207;BME280;593;53.184;8.216;2023-03-01T09:58:54;102650.41;;;3.77;100.00
1207;BME280;593;53.184;8.216;2023-03-01T10:01:38;102642.78;;;3.81;100.00
1207;BME280;593;53.184;8.216;2023-03-01T10:09:42;102635.31;;;3.98;94.07
1207;BME280;593;53.184;8.216;2023-03-01T10:12:11;102643.66;;;4.03;88.07
1207;BME280;593;53.184;8.216;2023-03-01T10:14:43;102638.03;;;4.19;85.89
1207;BME280;593;53.184;8.216;2023-03-01T10:19:44;102639.69;;;4.41;82.13
1207;BME280;593;53.184;8.216;2023-03-01T10:22:16;102631.69;;;4.47;81.83
1207;BME280;593;53.184;8.216;2023-03-01T10:24:43;102633.34;;;4.48;81.92
1207;BME280;593;53.184;8.216;2023-03-01T10:30:29;102642.38;;;4.62;83.28
1207;BME280;593;53.184;8.216;2023-03-01T10:32:57;102637.28;;;4.74;83.37
1207;BME280;593;53.184;8.216;2023-03-01T10:35:25;102625.94;;;4.78;85.15
1207;BME280;593;53.184;8.216;2023-03-01T10:40:23;102625.63;;;4.94;86.00
1207;BME280;593;53.184;8.216;2023-03-01T10:42:49;102624.84;;;5.00;84.41
1207;BME280;593;53.184;8.216;2023-03-01T10:53:32;102626.94;;;5.39;85.50
1207;BME280;593;53.184;8.216;2023-03-01T10:56:13;102624.22;;;5.33;85.79
1207;BME280;593;53.184;8.216;2023-03-01T10:58:56;102607.59;;;5.29;85.29
1207;BME280;593;53.184;8.216;2023-03-01T11:06:31;102614.91;;;5.42;84.52
1207;BME280;593;53.184;8.216;2023-03-01T11:08:56;102618.94;;;5.59;84.36
1207;BME280;593;53.184;8.216;2023-03-01T11:11:33;102619.38;;;5.62;85.16
1207;BME280;593;53.184;8.216;2023-03-01T11:14:07;102615.84;;;5.62;83.54
1207;BME280;593;53.184;8.216;2023-03-01T11:16:38;102615.06;;;5.74;82.91
1207;BME280;593;53.184;8.216;2023-03-01T11:19:20;102606.97;;;5.74;81.46
1207;BME280;593;53.184;8.216;2023-03-01T11:21:52;102607.00;;;5.81;82.12
1207;BME280;593;53.184;8.216;2023-03-01T11:24:19;102604.91;;;5.83;82.58
1207;BME280;593;53.184;8.216;2023-03-01T11:26:50;102604.47;;;5.73;83.24
1207;BME280;593;53.184;8.216;2023-03-01T11:29:30;102605.34;;;5.87;82.70
1207;BME280;593;53.184;8.216;2023-03-01T11:32:00;102601.66;;;5.94;82.84
1207;BME280;593;53.184;8.216;2023-03-01T11:34:47;102613.50;;;5.93;84.15
1207;BME280;593;53.184;8.216;2023-03-01T11:37:28;102605.22;;;6.01;84.92
1207;BME280;593;53.184;8.216;2023-03-01T11:40:10;102594.00;;;6.11;83.05
1207;BME280;593;53.184;8.216;2023-03-01T11:43:11;102598.97;;;6.14;82.99
1207;BME280;593;53.184;8.216;2023-03-01T11:45:37;102587.38;;;6.13;83.98
1207;BME280;593;53.184;8.216;2023-03-01T11:48:23;102578.22;;;6.08;84.42
1207;BME280;593;53.184;8.216;2023-03-01T11:50:54;102577.41;;;6.20;83.89
1207;BME280;593;53.184;8.216;2023-03-01T11:53:28;102590.69;;;6.22;85.11
1207;BME280;593;53.184;8.216;2023-03-01T11:56:05;102583.84;;;6.26;85.87
1207;BME280;593;53.184;8.216;2023-03-01T12:01:35;102585.31;;;6.48;86.64
1207;BME280;593;53.184;8.216;2023-03-01T12:04:33;102576.56;;;6.53;85.45
1207;BME280;593;53.184;8.216;2023-03-01T12:07:16;102579.91;;;6.55;86.03
1207;BME280;593;53.184;8.216;2023-03-01T12:10:05;102565.16;;;6.51;85.98
1207;BME280;593;53.184;8.216;2023-03-01T12:12:53;102582.59;;;6.68;85.75
1207;BME280;593;53.184;8.216;2023-03-01T12:15:58;102572.00;;;6.60;87.55
1207;BME280;593;53.184;8.216;2023-03-01T12:28:55;102562.81;;;6.87;87.99
1207;BME280;593;53.184;8.216;2023-03-01T12:34:33;102551.19;;;6.86;88.07
1207;BME280;593;53.184;8.216;2023-03-01T12:45:42;102542.75;;;7.14;86.38
1207;BME280;593;53.184;8.216;2023-03-01T12:50:44;102541.72;;;7.15;86.21
1207;BME280;593;53.184;8.216;2023-03-01T12:53:29;102539.00;;;7.15;85.03
1207;BME280;593;53.184;8.216;2023-03-01T12:56:00;102540.41;;;7.31;86.84
1207;BME280;593;53.184;8.216;2023-03-01T12:58:33;102529.97;;;7.41;87.42
1207;BME280;593;53.184;8.216;2023-03-01T13:06:35;102528.41;;;7.58;86.42
1207;BME280;593;53.184;8.216;2023-03-01T13:09:17;102516.63;;;7.39;85.73
1207;BME280;593;53.184;8.216;2023-03-01T13:11:45;102508.88;;;7.49;87.00
1207;BME280;593;53.184;8.216;2023-03-01T13:16:48;102514.66;;;7.59;85.01
1207;BME280;593;53.184;8.216;2023-03-01T13:19:29;102513.66;;;7.54;84.49
1207;BME280;593;53.184;8.216;2023-03-01T13:21:57;102511.38;;;7.51;85.70
1207;BME280;593;53.184;8.216;2023-03-01T13:24:41;102507.53;;;7.65;86.15
1207;BME280;593;53.184;8.216;2023-03-01T13:29:56;102506.25;;;7.74;84.75
1207;BME280;593;53.184;8.216;2023-03-01T13:32:26;102488.50;;;7.78;84.78
1207;BME280;593;53.184;8.216;2023-03-01T13:37:42;102487.50;;;7.72;83.97
1207;BME280;593;53.184;8.216;2023-03-01T13:42:50;102479.19;;;7.67;83.87
1207;BME280;593;53.184;8.216;2023-03-01T13:45:22;102473.28;;;7.77;83.88
1207;BME280;593;53.184;8.216;2023-03-01T13:47:56;102481.22;;;7.79;84.08
1207;BME280;593;53.184;8.216;2023-03-01T13:50:25;102474.13;;;7.78;84.23
1207;BME280;593;53.184;8.216;2023-03-01T13:52:55;102468.81;;;7.89;87.12
1207;BME280;593;53.184;8.216;2023-03-01T13:55:36;102454.91;;;7.86;86.82
1207;BME280;593;53.184;8.216;2023-03-01T13:58:15;102455.25;;;7.96;84.42
1207;BME280;593;53.184;8.216;2023-03-01T14:00:41;102460.66;;;7.96;85.39
1207;BME280;593;53.184;8.216;2023-03-01T14:03:15;102456.56;;;8.11;88.30
1207;BME280;593;53.184;8.216;2023-03-01T14:05:44;102456.94;;;8.15;88.78
1207;BME280;593;53.184;8.216;2023-03-01T14:08:23;102457.94;;;8.20;85.26
1207;BME280;593;53.184;8.216;2023-03-01T14:13:32;102437.38;;;8.37;87.59
1207;BME280;593;53.184;8.216;2023-03-01T14:16:30;102439.19;;;8.44;84.17
1207;BME280;593;53.184;8.216;2023-03-01T14:25:06;102421.53;;;8.10;84.91
1207;BME280;593;53.184;8.216;2023-03-01T14:27:42;102430.34;;;8.05;86.24
1207;BME280;593;53.184;8.216;2023-03-01T14:30:38;102420.59;;;8.22;88.72
1207;BME280;593;53.184;8.216;2023-03-01T14:33:18;102419.75;;;8.28;88.36
1207;BME280;593;53.184;8.216;2023-03-01T14:38:29;102408.53;;;8.43;88.88
1207;BME280;593;53.184;8.216;2023-03-01T14:40:59;102409.97;;;8.46;88.96
1207;BME280;593;53.184;8.216;2023-03-01T14:43:26;102406.88;;;8.42;87.15
1207;BME280;593;53.184;8.216;2023-03-01T14:45:53;102397.22;;;8.28;86.84
1207;BME280;593;53.184;8.216;2023-03-01T14:48:19;102389.47;;;8.31;87.98
1207;BME280;593;53.184;8.216;2023-03-01T14:50:45;102402.28;;;8.43;86.99
1207;BME280;593;53.184;8.216;2023-03-01T14:53:18;102401.97;;;8.32;87.00
1207;BME280;593;53.184;8.216;2023-03-01T14:55:47;102398.97;;;8.41;86.47
1207;BME280;593;53.184;8.216;2023-03-01T14:58:20;102387.69;;;8.44;87.91
1207;BME280;593;53.184;8.216;2023-03-01T15:00:58;102394.06;;;8.31;87.99
1207;BME280;593;53.184;8.216;2023-03-01T15:03:33;102394.28;;;8.29;87.51
1207;BME280;593;53.184;8.216;2023-03-01T15:06:01;102388.66;;;8.24;87.90
1207;BME280;593;53.184;8.216;2023-03-01T15:08:27;102376.63;;;8.20;87.84
1207;BME280;593;53.184;8.216;2023-03-01T15:11:28;102382.03;;;8.20;88.40
1207;BME280;593;53.184;8.216;2023-03-01T15:13:51;102384.31;;;8.23;88.26